createdAt,value
2018-01-20T00:02:21.566Z,71.10
2018-01-20T00:04:48.994Z,71.66
2018-01-20T00:07:16.441Z,72.12
2018-01-20T00:09:55.591Z,72.09
2018-01-20T00:12:23.095Z,72.22
2018-01-20T00:14:50.589Z,72.57
2018-01-20T00:17:18.057Z,72.62
2018-01-20T00:19:45.501Z,72.94
2018-01-20T00:22:24.827Z,73.27
2018-01-20T00:24:57.892Z,73.12
2018-01-20T00:27:25.349Z,72.87
2018-01-20T00:29:53.943Z,73.29
2018-01-20T00:32:21.395Z,73.71
2018-01-20T00:34:48.877Z,73.37
2018-01-20T00:37:16.318Z,73.40
2018-01-20T00:39:43.773Z,73.40
2018-01-20T00:42:11.298Z,73.56
2018-01-20T00:44:38.760Z,73.92
2018-01-20T00:47:06.287Z,73.57
2018-01-20T00:49:33.732Z,73.95
2018-01-20T00:52:01.183Z,74.24
2018-01-20T00:54:28.657Z,74.69
2018-01-20T00:56:56.176Z,75.17
2018-01-20T00:59:23.628Z,75.47
2018-01-20T01:01:51.092Z,75.27
2018-01-20T01:04:18.576Z,75.71
2018-01-20T01:06:46.057Z,76.11
2018-01-20T01:09:13.609Z,76.48
2018-01-20T01:11:41.039Z,76.73
2018-01-20T01:14:08.546Z,77.14
2018-01-20T01:16:35.990Z,77.93
2018-01-20T01:19:03.433Z,78.54
2018-01-20T01:21:30.906Z,78.54
2018-01-20T01:23:58.351Z,78.59
2018-01-20T01:26:25.804Z,78.97
2018-01-20T01:28:53.303Z,78.89
2018-01-20T01:31:20.755Z,79.08
2018-01-20T01:33:48.219Z,79.21
2018-01-20T01:36:15.674Z,79.50
2018-01-20T01:38:43.157Z,79.85
2018-01-20T01:41:10.590Z,80.17
2018-01-20T01:43:38.070Z,80.40
2018-01-20T01:46:05.720Z,80.55
2018-01-20T01:48:33.183Z,80.67
2018-01-20T01:51:00.652Z,80.48
2018-01-20T01:53:28.114Z,80.39
2018-01-20T01:55:55.563Z,80.08
2018-01-20T01:58:23.047Z,80.09
2018-01-20T02:00:50.490Z,80.37
2018-01-20T02:03:17.942Z,80.40
2018-01-20T02:05:45.412Z,80.36
2018-01-20T02:08:12.854Z,80.01
2018-01-20T02:10:40.348Z,79.68
2018-01-20T02:13:07.827Z,79.68
2018-01-20T02:15:35.291Z,79.80
2018-01-20T02:18:02.763Z,79.29
2018-01-20T02:20:30.223Z,79.35
2018-01-20T02:22:57.678Z,79.43
2018-01-20T02:25:25.140Z,78.89
2018-01-20T02:27:52.668Z,78.92
2018-01-20T02:30:20.146Z,79.18
2018-01-20T02:32:47.610Z,79.36
2018-01-20T02:35:15.064Z,79.63
2018-01-20T02:37:42.497Z,79.93
2018-01-20T02:40:09.951Z,79.93
2018-01-20T02:42:37.437Z,80.03
2018-01-20T02:45:04.887Z,79.87
2018-01-20T02:47:32.353Z,79.79
2018-01-20T02:49:59.810Z,79.90
2018-01-20T02:52:27.260Z,79.78
2018-01-20T02:54:54.735Z,79.61
2018-01-20T02:57:22.214Z,79.67
2018-01-20T02:59:49.646Z,79.91
2018-01-20T03:02:17.150Z,79.75
2018-01-20T03:04:44.679Z,78.29
2018-01-20T03:07:12.112Z,77.97
2018-01-20T03:09:39.570Z,78.24
2018-01-20T03:12:07.061Z,78.60
2018-01-20T03:14:34.510Z,78.96
2018-01-20T03:17:01.950Z,79.12
2018-01-20T03:19:29.408Z,78.64
2018-01-20T03:21:56.856Z,78.34
2018-01-20T03:24:24.388Z,78.30
2018-01-20T03:26:51.841Z,78.39
2018-01-20T03:29:19.311Z,78.27
2018-01-20T03:31:46.774Z,78.03
2018-01-20T03:34:14.214Z,77.78
2018-01-20T03:36:41.684Z,77.27
2018-01-20T03:39:09.173Z,76.88
2018-01-20T03:41:36.618Z,76.97
2018-01-20T03:44:04.090Z,76.52
2018-01-20T03:46:31.562Z,76.01
2018-01-20T03:48:59.007Z,76.60
2018-01-20T03:51:26.469Z,76.89
2018-01-20T03:53:53.915Z,77.28
2018-01-20T03:56:21.402Z,77.18
2018-01-20T03:58:48.858Z,76.46
2018-01-20T04:01:16.299Z,76.53
2018-01-20T04:03:44.918Z,76.54
2018-01-20T04:06:12.374Z,76.85
2018-01-20T04:08:39.891Z,77.40
2018-01-20T04:11:07.356Z,77.21
2018-01-20T04:13:34.800Z,77.62
2018-01-20T04:16:02.261Z,78.08
2018-01-20T04:18:29.699Z,78.17
2018-01-20T04:20:57.155Z,76.98
2018-01-20T04:23:24.609Z,77.12
2018-01-20T04:25:52.067Z,76.81
2018-01-20T04:28:19.554Z,75.83
2018-01-20T04:30:46.982Z,76.96
2018-01-20T04:33:14.413Z,77.24
2018-01-20T04:35:41.874Z,76.77
2018-01-20T04:38:09.324Z,77.44
2018-01-20T04:40:36.814Z,76.99
2018-01-20T04:43:04.277Z,77.91
2018-01-20T04:45:31.713Z,78.29
2018-01-20T04:47:59.187Z,80.24
2018-01-20T04:50:26.674Z,82.60
2018-01-20T04:52:54.125Z,84.16
2018-01-20T04:55:21.576Z,85.22
2018-01-20T04:57:49.019Z,86.26
2018-01-20T05:00:16.502Z,87.13
2018-01-20T05:02:44.864Z,87.51
2018-01-20T05:05:12.322Z,87.86
2018-01-20T05:07:39.819Z,88.23
2018-01-20T05:10:07.254Z,88.45
2018-01-20T05:12:34.699Z,88.38
2018-01-20T05:15:02.178Z,88.51
2018-01-20T05:17:29.610Z,88.67
2018-01-20T05:19:57.069Z,88.91
2018-01-20T05:22:24.525Z,89.02
2018-01-20T05:24:51.974Z,89.20
2018-01-20T05:27:19.438Z,89.21
2018-01-20T05:29:46.893Z,89.29
2018-01-20T05:32:14.351Z,89.21
2018-01-20T05:34:41.802Z,89.14
2018-01-20T05:37:09.264Z,88.95
2018-01-20T05:39:36.739Z,88.66
2018-01-20T05:42:04.215Z,89.07
2018-01-20T05:44:31.673Z,89.05
2018-01-20T05:46:59.131Z,88.83
2018-01-20T05:49:26.600Z,89.47
2018-01-20T05:51:54.065Z,90.00
2018-01-20T05:54:22.547Z,90.05
2018-01-20T05:56:49.990Z,89.66
2018-01-20T05:59:17.458Z,87.44
2018-01-20T06:01:44.906Z,86.33
2018-01-20T06:04:12.410Z,85.53
2018-01-20T06:06:39.851Z,84.92
2018-01-20T06:09:07.339Z,84.34
2018-01-20T06:11:34.875Z,84.77
2018-01-20T06:14:02.476Z,86.65
2018-01-20T06:16:29.943Z,87.86
2018-01-20T06:18:57.418Z,88.24
2018-01-20T06:21:24.882Z,89.00
2018-01-20T06:23:52.327Z,89.33
2018-01-20T06:26:19.795Z,89.33
2018-01-20T06:28:47.260Z,89.70
2018-01-20T06:31:14.728Z,89.57
2018-01-20T06:33:42.234Z,89.38
2018-01-20T06:36:09.679Z,89.63
2018-01-20T06:38:37.166Z,89.81
2018-01-20T06:41:04.650Z,89.69
2018-01-20T06:43:32.105Z,88.70
2018-01-20T06:45:59.763Z,88.45
2018-01-20T06:48:27.235Z,88.31
2018-01-20T06:50:54.786Z,87.89
2018-01-20T06:53:22.251Z,88.30
2018-01-20T06:55:49.713Z,88.29
2018-01-20T06:58:17.186Z,87.44
2018-01-20T07:00:44.699Z,87.57
2018-01-20T07:03:12.162Z,87.06
2018-01-20T07:05:39.716Z,86.91
2018-01-20T07:08:08.318Z,86.94
2018-01-20T07:10:35.778Z,87.07
2018-01-20T07:13:04.339Z,86.93
2018-01-20T07:15:33.439Z,87.36
2018-01-20T07:18:01.114Z,87.91
2018-01-20T07:20:32.234Z,87.56
2018-01-20T07:23:01.204Z,87.71
2018-01-20T07:25:28.911Z,87.49
2018-01-20T07:27:57.168Z,87.22
2018-01-20T07:30:24.927Z,86.45
2018-01-20T07:32:52.548Z,86.04
2018-01-20T07:35:19.995Z,84.99
2018-01-20T07:37:47.448Z,84.96
2018-01-20T07:40:14.904Z,85.04
2018-01-20T07:42:42.354Z,84.83
2018-01-20T07:45:09.798Z,83.78
2018-01-20T07:47:37.268Z,83.98
2018-01-20T07:50:04.730Z,84.13
2018-01-20T07:52:32.183Z,83.80
2018-01-20T07:54:59.640Z,83.28
2018-01-20T07:57:28.012Z,83.45
2018-01-20T07:59:55.475Z,83.42
2018-01-20T08:02:22.934Z,84.00
2018-01-20T08:04:50.404Z,84.12
2018-01-20T08:07:18.006Z,84.30
2018-01-20T08:09:48.583Z,84.54
2018-01-20T08:12:17.829Z,83.85
2018-01-20T08:14:45.308Z,83.06
2018-01-20T08:17:12.745Z,82.73
2018-01-20T08:19:40.244Z,82.85
2018-01-20T08:22:07.706Z,82.98
2018-01-20T08:24:35.261Z,82.35
2018-01-20T08:27:02.924Z,82.74
2018-01-20T08:29:30.372Z,82.55
2018-01-20T08:31:57.843Z,82.21
2018-01-20T08:34:25.320Z,82.26
2018-01-20T08:36:52.791Z,81.91
2018-01-20T08:39:20.227Z,81.43
2018-01-20T08:41:47.714Z,81.10
2018-01-20T08:44:15.194Z,80.36
2018-01-20T08:46:42.642Z,80.13
2018-01-20T08:49:10.146Z,79.84
2018-01-20T08:51:37.607Z,78.91
2018-01-20T08:54:05.094Z,77.93
2018-01-20T08:56:32.543Z,77.70
2018-01-20T08:59:06.293Z,77.51
2018-01-20T09:01:33.770Z,76.92
2018-01-20T09:04:01.238Z,75.21
2018-01-20T09:06:28.718Z,75.78
2018-01-20T09:08:56.237Z,74.97
2018-01-20T09:11:23.736Z,75.04
2018-01-20T09:13:51.189Z,74.52
2018-01-20T09:16:18.667Z,74.16
2018-01-20T09:18:46.116Z,74.59
2018-01-20T09:21:13.581Z,74.71
2018-01-20T09:23:41.023Z,72.74
2018-01-20T09:26:08.473Z,71.06
2018-01-20T09:28:35.938Z,71.55
2018-01-20T09:31:03.382Z,70.75
2018-01-20T09:33:30.866Z,69.36
2018-01-20T09:35:58.311Z,66.46
2018-01-20T09:38:25.767Z,66.03
2018-01-20T09:40:53.233Z,65.06
2018-01-20T09:43:20.663Z,64.74
2018-01-20T09:45:48.219Z,63.80
2018-01-20T09:48:15.663Z,64.49
2018-01-20T09:50:43.120Z,63.21
2018-01-20T09:53:10.595Z,62.47
2018-01-20T09:55:38.576Z,62.08
2018-01-20T09:58:06.097Z,62.08
2018-01-20T10:00:33.557Z,61.12
2018-01-20T10:03:01.086Z,60.84
2018-01-20T10:05:28.566Z,60.53
2018-01-20T10:07:55.994Z,60.48
2018-01-20T10:10:23.435Z,61.04
2018-01-20T10:12:51.013Z,59.86
2018-01-20T10:15:18.489Z,60.12
2018-01-20T10:17:45.926Z,59.87
2018-01-20T10:20:14.296Z,60.09
2018-01-20T10:22:41.738Z,59.36
2018-01-20T10:25:09.195Z,58.89
2018-01-20T10:27:36.682Z,58.74
2018-01-20T10:30:04.313Z,58.43
2018-01-20T10:32:31.789Z,57.32
2018-01-20T10:34:59.230Z,55.93
2018-01-20T10:37:26.757Z,55.59
2018-01-20T10:39:54.211Z,54.76
2018-01-20T10:42:21.812Z,54.96
2018-01-20T10:44:49.312Z,54.44
2018-01-20T10:47:16.765Z,53.69
2018-01-20T10:49:44.210Z,54.06
2018-01-20T10:52:12.438Z,53.70
2018-01-20T10:54:39.892Z,54.25
2018-01-20T10:57:07.350Z,53.96
2018-01-20T10:59:34.820Z,53.11
2018-01-20T11:02:02.476Z,52.95
2018-01-20T11:04:30.048Z,53.38
2018-01-20T11:06:57.562Z,54.41
2018-01-20T11:09:25.011Z,53.54
2018-01-20T11:11:52.530Z,54.92
2018-01-20T11:14:20.079Z,55.18
2018-01-20T11:16:47.599Z,55.12
2018-01-20T11:19:15.103Z,54.81
2018-01-20T11:21:42.624Z,55.33
2018-01-20T11:24:10.091Z,55.10
2018-01-20T11:26:37.565Z,54.77
2018-01-20T11:29:05.023Z,55.50
2018-01-20T11:31:32.639Z,54.37
2018-01-20T11:34:00.282Z,54.22
2018-01-20T11:36:27.997Z,55.15
2018-01-20T11:38:55.457Z,54.54
2018-01-20T11:41:22.937Z,54.28
2018-01-20T11:43:50.893Z,53.90
2018-01-20T11:46:18.462Z,53.49
2018-01-20T11:48:45.931Z,53.47
2018-01-20T11:51:13.571Z,53.13
2018-01-20T11:53:41.077Z,52.15
2018-01-20T11:56:08.634Z,53.04
2018-01-20T11:58:36.082Z,53.12
2018-01-20T12:01:03.633Z,52.94
2018-01-20T12:03:31.124Z,53.83
2018-01-20T12:05:58.690Z,53.06
2018-01-20T12:08:26.171Z,52.41
2018-01-20T12:10:53.826Z,52.13
2018-01-20T12:13:21.267Z,51.53
2018-01-20T12:15:48.723Z,51.87
2018-01-20T12:18:20.311Z,52.10
2018-01-20T12:20:47.924Z,52.01
2018-01-20T12:23:15.390Z,51.46
2018-01-20T12:25:43.271Z,51.60
2018-01-20T12:28:10.748Z,51.52
2018-01-20T12:30:38.218Z,51.78
2018-01-20T12:33:05.679Z,52.31
2018-01-20T12:35:36.222Z,51.26
2018-01-20T12:38:03.748Z,51.53
2018-01-20T12:40:31.303Z,52.10
2018-01-20T12:42:58.957Z,52.55
2018-01-20T12:45:26.439Z,53.16
2018-01-20T12:47:54.305Z,53.45
2018-01-20T12:50:21.762Z,53.55
2018-01-20T12:52:49.296Z,54.17
2018-01-20T12:55:16.808Z,54.65
2018-01-20T12:57:44.484Z,55.22
2018-01-20T13:00:12.062Z,56.00
2018-01-20T13:02:39.539Z,56.73
2018-01-20T13:05:07.026Z,55.84
2018-01-20T13:07:35.464Z,58.27
2018-01-20T13:10:03.115Z,58.42
2018-01-20T13:12:31.344Z,60.48
2018-01-20T13:14:58.832Z,62.84
2018-01-20T13:17:26.406Z,64.59
2018-01-20T13:19:53.943Z,65.98
2018-01-20T13:22:21.481Z,66.40
2018-01-20T13:24:48.953Z,65.78
2018-01-20T13:27:16.974Z,65.14
2018-01-20T13:29:44.654Z,64.27
2018-01-20T13:32:12.131Z,65.62
2018-01-20T13:34:39.672Z,65.66
2018-01-20T13:37:08.568Z,64.95
2018-01-20T13:39:36.978Z,63.58
2018-01-20T13:42:04.459Z,64.46
2018-01-20T13:44:31.915Z,63.96
2018-01-20T13:46:59.365Z,64.29
2018-01-20T13:49:27.787Z,64.97
2018-01-20T13:51:55.347Z,65.47
2018-01-20T13:54:22.865Z,66.21
2018-01-20T13:56:50.405Z,65.71
2018-01-20T13:59:18.021Z,65.78
2018-01-20T14:01:45.510Z,66.26
2018-01-20T14:04:13.058Z,66.77
2018-01-20T14:06:40.538Z,67.06
2018-01-20T14:09:08.056Z,68.29
2018-01-20T14:11:36.402Z,67.71
2018-01-20T14:14:03.912Z,68.09
2018-01-20T14:16:32.521Z,67.57
2018-01-20T14:19:00.674Z,66.88
2018-01-20T14:21:28.576Z,66.10
2018-01-20T14:23:57.419Z,64.82
2018-01-20T14:26:24.938Z,63.74
2018-01-20T14:28:53.149Z,63.66
2018-01-20T14:31:21.998Z,63.99
2018-01-20T14:33:49.776Z,64.18
2018-01-20T14:36:19.030Z,64.27
2018-01-20T14:38:46.484Z,64.37
2018-01-20T14:41:13.966Z,64.03
2018-01-20T14:43:42.440Z,62.75
2018-01-20T14:46:09.909Z,63.77
2018-01-20T14:48:38.362Z,63.14
2018-01-20T14:51:05.851Z,62.95
2018-01-20T14:53:33.339Z,62.38
2018-01-20T14:56:00.836Z,62.44
2018-01-20T14:58:28.345Z,63.03
2018-01-20T15:00:57.207Z,63.45
2018-01-20T15:03:25.228Z,62.96
2018-01-20T15:05:53.948Z,63.79
2018-01-20T15:08:21.431Z,63.60
2018-01-20T15:10:48.900Z,63.65
2018-01-20T15:13:16.345Z,63.89
2018-01-20T15:15:43.783Z,64.55
2018-01-20T15:18:11.278Z,65.51
2018-01-20T15:20:39.749Z,66.16
2018-01-20T15:23:12.444Z,66.46
2018-01-20T15:25:40.254Z,67.43
2018-01-20T15:28:10.586Z,67.96
2018-01-20T15:30:38.415Z,68.78
2018-01-20T15:33:05.891Z,68.89
2018-01-20T15:35:33.389Z,68.88
2018-01-20T15:38:00.907Z,69.34
2018-01-20T15:40:28.378Z,69.97
2018-01-20T15:42:55.818Z,69.96
2018-01-20T15:45:23.281Z,70.40
2018-01-20T15:47:51.176Z,70.98
2018-01-20T15:50:18.755Z,71.27
2018-01-20T15:52:46.244Z,71.19
2018-01-20T15:55:13.727Z,71.05
2018-01-20T15:57:41.301Z,71.21
2018-01-20T16:00:08.774Z,71.50
2018-01-20T16:02:36.246Z,72.00
2018-01-20T16:05:03.702Z,71.80
2018-01-20T16:07:31.715Z,72.07
2018-01-20T16:09:59.206Z,71.96
2018-01-20T16:12:26.770Z,72.18
2018-01-20T16:14:54.355Z,71.94
2018-01-20T16:17:21.835Z,71.80
2018-01-20T16:19:49.317Z,71.53
2018-01-20T16:22:16.787Z,71.88
2018-01-20T16:24:45.613Z,72.07
2018-01-20T16:27:13.239Z,71.98
2018-01-20T16:29:41.187Z,72.27
2018-01-20T16:32:08.851Z,72.21
2018-01-20T16:34:36.405Z,72.21
2018-01-20T16:37:03.981Z,72.24
2018-01-20T16:39:32.026Z,72.44
2018-01-20T16:41:59.583Z,72.25
2018-01-20T16:44:27.104Z,71.71
2018-01-20T16:46:54.654Z,70.70
2018-01-20T16:49:22.698Z,70.60
2018-01-20T16:51:51.241Z,70.22
2018-01-20T16:54:19.456Z,70.26
2018-01-20T16:56:46.965Z,70.61
2018-01-20T16:59:14.515Z,71.09
2018-01-20T17:01:42.077Z,71.83
2018-01-20T17:04:09.571Z,72.45
2018-01-20T17:06:37.057Z,71.82
2018-01-20T17:09:04.669Z,72.57
2018-01-20T17:11:32.170Z,72.98
2018-01-20T17:13:59.898Z,73.04
2018-01-20T17:16:27.408Z,73.27
2018-01-20T17:18:54.929Z,73.55
2018-01-20T17:21:22.439Z,73.42
2018-01-20T17:23:49.935Z,73.59
2018-01-20T17:26:17.425Z,74.00
2018-01-20T17:28:44.959Z,73.71
2018-01-20T17:31:12.439Z,73.95
2018-01-20T17:33:40.046Z,74.36
2018-01-20T17:36:07.566Z,74.69
2018-01-20T17:38:36.051Z,74.73
2018-01-20T17:41:03.572Z,74.91
2018-01-20T17:43:31.066Z,75.15
2018-01-20T17:45:58.741Z,75.56
2018-01-20T17:48:26.221Z,75.89
2018-01-20T17:50:53.784Z,76.44
2018-01-20T17:53:21.247Z,76.68
2018-01-20T17:55:48.863Z,77.10
2018-01-20T17:58:16.415Z,77.41
2018-01-20T18:00:44.056Z,77.54
2018-01-20T18:03:16.024Z,77.39
2018-01-20T18:05:43.907Z,77.18
2018-01-20T18:08:11.473Z,76.76
2018-01-20T18:10:39.033Z,76.57
2018-01-20T18:13:07.281Z,76.57
2018-01-20T18:15:34.783Z,76.87
2018-01-20T18:18:02.323Z,76.99
2018-01-20T18:20:29.871Z,77.17
2018-01-20T18:22:57.428Z,77.38
2018-01-20T18:25:24.921Z,77.78
2018-01-20T18:27:52.633Z,77.98
2018-01-20T18:30:20.181Z,78.48
2018-01-20T18:32:47.663Z,79.12
2018-01-20T18:35:15.232Z,79.72
2018-01-20T18:37:42.720Z,80.29
2018-01-20T18:40:10.211Z,80.81
2018-01-20T18:42:37.768Z,81.09
2018-01-20T18:45:05.328Z,81.22
2018-01-20T18:47:32.791Z,81.48
2018-01-20T18:50:00.315Z,81.87
2018-01-20T18:52:28.226Z,82.03
2018-01-20T18:54:55.859Z,82.31
2018-01-20T18:57:23.466Z,82.38
2018-01-20T18:59:51.389Z,82.52
2018-01-20T19:02:18.992Z,82.62
2018-01-20T19:04:46.705Z,82.68
2018-01-20T19:07:14.712Z,82.70
2018-01-20T19:09:42.373Z,82.69
2018-01-20T19:12:10.407Z,82.72
2018-01-20T19:14:38.026Z,82.70
2018-01-20T19:17:05.561Z,82.73
2018-01-20T19:19:33.292Z,82.81
2018-01-20T19:22:03.466Z,83.08
2018-01-20T19:24:31.262Z,83.35
2018-01-20T19:27:00.615Z,83.45
2018-01-20T19:42:24.869Z,83.04
2018-01-20T19:44:53.242Z,82.84
2018-01-20T19:47:21.114Z,82.74
2018-01-20T19:54:58.467Z,83.33
2018-01-20T19:57:27.554Z,83.51
2018-01-20T19:59:55.552Z,83.39
2018-01-20T20:02:23.357Z,83.27
2018-01-20T20:04:50.913Z,83.48
2018-01-20T20:07:18.657Z,83.88
2018-01-20T20:09:47.452Z,84.25
2018-01-20T20:14:51.982Z,84.32
2018-01-20T20:30:14.527Z,85.71
2018-01-20T20:32:42.781Z,86.11
2018-01-20T20:35:10.398Z,86.25
2018-01-20T20:37:37.919Z,86.16
2018-01-20T20:40:07.297Z,86.07
2018-01-20T20:58:30.689Z,84.40
2018-01-20T21:00:58.711Z,84.32
2018-01-20T21:03:26.580Z,83.77
2018-01-20T21:05:54.157Z,83.55
2018-01-20T21:08:23.995Z,83.39
2018-01-20T21:19:41.036Z,81.71
2018-01-20T21:22:10.644Z,82.10
2018-01-20T21:24:38.842Z,81.81
2018-01-20T21:27:09.657Z,81.60
2018-01-20T21:29:45.445Z,81.58
2018-01-20T21:32:13.061Z,81.26
2018-01-20T21:34:41.046Z,81.58
2018-01-20T21:37:09.545Z,82.07
2018-01-20T21:39:37.228Z,81.74
2018-01-20T21:42:06.261Z,81.24
2018-01-20T21:44:33.902Z,81.56
2018-01-20T21:47:01.580Z,81.63
2018-01-20T21:49:29.168Z,81.70
2018-01-20T21:51:57.119Z,81.35
2018-01-20T21:54:24.861Z,81.34
2018-01-20T21:56:53.333Z,81.47
2018-01-20T21:59:21.202Z,81.44
2018-01-20T22:01:50.080Z,81.36
2018-01-20T22:04:17.685Z,81.46
2018-01-20T22:06:45.173Z,81.10
2018-01-20T22:09:12.677Z,81.42
2018-01-20T22:11:40.190Z,81.33
2018-01-20T22:14:08.338Z,81.62
2018-01-20T22:16:38.012Z,81.38
2018-01-20T22:19:05.978Z,81.40
2018-01-20T22:21:33.453Z,81.42
2018-01-20T22:24:01.083Z,81.47
2018-01-20T22:26:28.603Z,81.52
2018-01-20T22:28:59.050Z,81.29
2018-01-20T22:31:26.704Z,81.02
2018-01-20T22:33:55.080Z,80.57
2018-01-20T22:36:22.800Z,81.04
2018-01-20T22:38:51.661Z,81.32
2018-01-20T22:41:19.266Z,80.78
2018-01-20T22:43:46.930Z,80.52
2018-01-20T22:48:47.718Z,80.23
2018-01-20T22:51:15.214Z,79.72
2018-01-20T22:53:44.105Z,80.07
2018-01-20T22:56:13.751Z,80.43
2018-01-20T22:58:41.570Z,80.28
2018-01-20T23:01:14.688Z,80.57
2018-01-20T23:03:45.401Z,80.73
2018-01-20T23:06:14.371Z,81.05
2018-01-20T23:08:42.286Z,81.21
2018-01-20T23:11:09.846Z,81.09
2018-01-20T23:13:37.348Z,81.48
2018-01-20T23:16:04.887Z,81.70
2018-01-20T23:18:32.395Z,81.71
2018-01-20T23:20:59.916Z,82.17
2018-01-20T23:23:27.403Z,81.85
2018-01-20T23:25:54.887Z,81.92
2018-01-20T23:28:22.427Z,82.12
2018-01-20T23:30:49.914Z,82.48
2018-01-20T23:33:19.200Z,82.74
2018-01-20T23:35:46.721Z,82.26
2018-01-20T23:38:14.216Z,82.53
2018-01-20T23:40:41.763Z,82.71
2018-01-20T23:43:09.231Z,82.92
2018-01-20T23:45:36.753Z,83.11
2018-01-20T23:48:04.231Z,83.18
2018-01-20T23:50:31.774Z,83.15
2018-01-20T23:52:59.415Z,83.15
2018-01-20T23:55:27.010Z,83.05
2018-01-20T23:57:54.540Z,83.15
